sensor_id;sensor_type;location;lat;lon;timestamp;P1;durP1;ratioP1;P2;durP2;ratioP2
48122;SDS011;33907;47.426;18.906;2023-04-25T00:02:17;3.67;;;1.52;;
48122;SDS011;33907;47.426;18.906;2023-04-25T00:04:45;3.17;;;1.60;;
48122;SDS011;33907;47.426;18.906;2023-04-25T00:07:13;5.55;;;1.85;;
48122;SDS011;33907;47.426;18.906;2023-04-25T00:09:41;4.50;;;2.10;;
48122;SDS011;33907;47.426;18.906;2023-04-25T00:12:09;3.65;;;1.90;;
48122;SDS011;33907;47.426;18.906;2023-04-25T00:14:36;8.13;;;1.70;;
48122;SDS011;33907;47.426;18.906;2023-04-25T00:17:04;3.47;;;2.03;;
48122;SDS011;33907;47.426;18.906;2023-04-25T00:19:33;4.32;;;2.10;;
48122;SDS011;33907;47.426;18.906;2023-04-25T00:22:01;4.20;;;2.10;;
48122;SDS011;33907;47.426;18.906;2023-04-25T00:24:29;4.32;;;1.85;;
48122;SDS011;33907;47.426;18.906;2023-04-25T00:26:57;6.28;;;2.30;;
48122;SDS011;33907;47.426;18.906;2023-04-25T00:29:24;3.90;;;1.80;;
48122;SDS011;33907;47.426;18.906;2023-04-25T00:31:51;4.60;;;2.35;;
48122;SDS011;33907;47.426;18.906;2023-04-25T00:34:19;4.62;;;2.30;;
48122;SDS011;33907;47.426;18.906;2023-04-25T00:36:47;5.25;;;2.37;;
48122;SDS011;33907;47.426;18.906;2023-04-25T00:39:15;4.93;;;2.83;;
48122;SDS011;33907;47.426;18.906;2023-04-25T00:41:43;4.40;;;2.47;;
48122;SDS011;33907;47.426;18.906;2023-04-25T00:44:10;5.03;;;2.92;;
48122;SDS011;33907;47.426;18.906;2023-04-25T00:46:38;6.28;;;3.20;;
48122;SDS011;33907;47.426;18.906;2023-04-25T00:49:07;7.78;;;3.50;;
48122;SDS011;33907;47.426;18.906;2023-04-25T00:51:34;5.25;;;2.85;;
48122;SDS011;33907;47.426;18.906;2023-04-25T00:54:02;5.95;;;2.50;;
48122;SDS011;33907;47.426;18.906;2023-04-25T00:56:30;4.75;;;2.78;;
48122;SDS011;33907;47.426;18.906;2023-04-25T00:58:58;5.28;;;3.00;;
48122;SDS011;33907;47.426;18.906;2023-04-25T01:01:25;4.68;;;2.95;;
48122;SDS011;33907;47.426;18.906;2023-04-25T01:03:53;5.78;;;3.30;;
48122;SDS011;33907;47.426;18.906;2023-04-25T01:06:22;5.55;;;3.05;;
48122;SDS011;33907;47.426;18.906;2023-04-25T01:08:49;7.10;;;3.50;;
48122;SDS011;33907;47.426;18.906;2023-04-25T01:11:19;7.07;;;3.78;;
48122;SDS011;33907;47.426;18.906;2023-04-25T01:13:46;5.65;;;3.25;;
48122;SDS011;33907;47.426;18.906;2023-04-25T01:16:14;5.03;;;3.08;;
48122;SDS011;33907;47.426;18.906;2023-04-25T01:18:42;6.07;;;3.20;;
48122;SDS011;33907;47.426;18.906;2023-04-25T01:21:11;8.15;;;3.30;;
48122;SDS011;33907;47.426;18.906;2023-04-25T01:23:40;5.68;;;3.50;;
48122;SDS011;33907;47.426;18.906;2023-04-25T01:26:09;4.85;;;3.10;;
48122;SDS011;33907;47.426;18.906;2023-04-25T01:28:38;4.90;;;3.10;;
48122;SDS011;33907;47.426;18.906;2023-04-25T01:31:08;14.65;;;5.10;;
48122;SDS011;33907;47.426;18.906;2023-04-25T01:33:36;5.30;;;2.92;;
48122;SDS011;33907;47.426;18.906;2023-04-25T01:36:04;6.53;;;3.20;;
48122;SDS011;33907;47.426;18.906;2023-04-25T01:38:34;6.15;;;3.30;;
48122;SDS011;33907;47.426;18.906;2023-04-25T01:41:02;4.32;;;2.50;;
48122;SDS011;33907;47.426;18.906;2023-04-25T01:43:30;5.37;;;3.20;;
48122;SDS011;33907;47.426;18.906;2023-04-25T01:45:57;5.87;;;3.08;;
48122;SDS011;33907;47.426;18.906;2023-04-25T01:48:25;7.22;;;3.37;;
48122;SDS011;33907;47.426;18.906;2023-04-25T01:50:53;4.90;;;3.20;;
48122;SDS011;33907;47.426;18.906;2023-04-25T01:53:20;6.07;;;3.15;;
48122;SDS011;33907;47.426;18.906;2023-04-25T01:55:48;5.10;;;3.22;;
48122;SDS011;33907;47.426;18.906;2023-04-25T01:58:15;7.18;;;3.30;;
48122;SDS011;33907;47.426;18.906;2023-04-25T02:00:46;6.45;;;3.53;;
48122;SDS011;33907;47.426;18.906;2023-04-25T02:03:13;5.32;;;3.08;;
48122;SDS011;33907;47.426;18.906;2023-04-25T02:05:41;6.35;;;2.80;;
48122;SDS011;33907;47.426;18.906;2023-04-25T02:08:09;6.37;;;3.17;;
48122;SDS011;33907;47.426;18.906;2023-04-25T02:10:37;6.60;;;2.70;;
48122;SDS011;33907;47.426;18.906;2023-04-25T02:13:06;6.32;;;3.10;;
48122;SDS011;33907;47.426;18.906;2023-04-25T02:15:33;5.18;;;3.25;;
48122;SDS011;33907;47.426;18.906;2023-04-25T02:18:02;5.82;;;3.22;;
48122;SDS011;33907;47.426;18.906;2023-04-25T02:20:30;5.72;;;3.62;;
48122;SDS011;33907;47.426;18.906;2023-04-25T02:22:58;6.30;;;3.20;;
48122;SDS011;33907;47.426;18.906;2023-04-25T02:25:27;6.05;;;3.53;;
48122;SDS011;33907;47.426;18.906;2023-04-25T02:27:55;5.93;;;3.72;;
48122;SDS011;33907;47.426;18.906;2023-04-25T02:30:22;5.62;;;3.10;;
48122;SDS011;33907;47.426;18.906;2023-04-25T02:32:50;5.18;;;3.12;;
48122;SDS011;33907;47.426;18.906;2023-04-25T02:35:18;7.25;;;3.35;;
48122;SDS011;33907;47.426;18.906;2023-04-25T02:37:46;5.90;;;3.40;;
48122;SDS011;33907;47.426;18.906;2023-04-25T02:40:13;6.43;;;3.65;;
48122;SDS011;33907;47.426;18.906;2023-04-25T02:42:41;8.45;;;3.00;;
48122;SDS011;33907;47.426;18.906;2023-04-25T02:45:08;5.32;;;3.35;;
48122;SDS011;33907;47.426;18.906;2023-04-25T02:47:36;4.43;;;2.83;;
48122;SDS011;33907;47.426;18.906;2023-04-25T02:50:04;5.45;;;3.10;;
48122;SDS011;33907;47.426;18.906;2023-04-25T02:52:32;6.05;;;3.55;;
48122;SDS011;33907;47.426;18.906;2023-04-25T02:55:01;5.90;;;3.50;;
48122;SDS011;33907;47.426;18.906;2023-04-25T02:57:28;4.62;;;3.05;;
48122;SDS011;33907;47.426;18.906;2023-04-25T02:59:56;5.65;;;3.17;;
48122;SDS011;33907;47.426;18.906;2023-04-25T03:02:24;5.82;;;3.28;;
48122;SDS011;33907;47.426;18.906;2023-04-25T03:04:51;8.40;;;3.55;;
48122;SDS011;33907;47.426;18.906;2023-04-25T03:07:19;5.00;;;2.97;;
48122;SDS011;33907;47.426;18.906;2023-04-25T03:09:48;7.40;;;3.45;;
48122;SDS011;33907;47.426;18.906;2023-04-25T03:12:15;6.90;;;3.67;;
48122;SDS011;33907;47.426;18.906;2023-04-25T03:14:43;5.53;;;3.22;;
48122;SDS011;33907;47.426;18.906;2023-04-25T03:17:10;6.25;;;3.50;;
48122;SDS011;33907;47.426;18.906;2023-04-25T03:19:38;5.85;;;3.80;;
48122;SDS011;33907;47.426;18.906;2023-04-25T03:22:05;5.97;;;3.60;;
48122;SDS011;33907;47.426;18.906;2023-04-25T03:24:33;5.62;;;3.50;;
48122;SDS011;33907;47.426;18.906;2023-04-25T03:27:00;5.57;;;3.42;;
48122;SDS011;33907;47.426;18.906;2023-04-25T03:29:28;5.53;;;3.33;;
48122;SDS011;33907;47.426;18.906;2023-04-25T03:31:56;5.35;;;3.50;;
48122;SDS011;33907;47.426;18.906;2023-04-25T03:34:24;7.60;;;3.42;;
48122;SDS011;33907;47.426;18.906;2023-04-25T03:36:53;6.25;;;3.80;;
48122;SDS011;33907;47.426;18.906;2023-04-25T03:39:20;6.93;;;3.80;;
48122;SDS011;33907;47.426;18.906;2023-04-25T03:41:48;7.30;;;3.65;;
48122;SDS011;33907;47.426;18.906;2023-04-25T03:44:16;5.85;;;3.50;;
48122;SDS011;33907;47.426;18.906;2023-04-25T03:46:44;6.25;;;3.67;;
48122;SDS011;33907;47.426;18.906;2023-04-25T03:49:11;6.53;;;3.67;;
48122;SDS011;33907;47.426;18.906;2023-04-25T03:51:39;8.48;;;3.90;;
48122;SDS011;33907;47.426;18.906;2023-04-25T03:54:07;7.87;;;4.07;;
48122;SDS011;33907;47.426;18.906;2023-04-25T03:56:37;5.68;;;3.85;;
48122;SDS011;33907;47.426;18.906;2023-04-25T03:59:05;5.95;;;3.78;;
48122;SDS011;33907;47.426;18.906;2023-04-25T04:01:34;6.35;;;3.97;;
48122;SDS011;33907;47.426;18.906;2023-04-25T04:04:02;6.18;;;3.97;;
48122;SDS011;33907;47.426;18.906;2023-04-25T04:06:30;6.60;;;4.05;;
48122;SDS011;33907;47.426;18.906;2023-04-25T04:08:59;6.37;;;4.43;;
48122;SDS011;33907;47.426;18.906;2023-04-25T04:11:27;6.07;;;4.10;;
48122;SDS011;33907;47.426;18.906;2023-04-25T04:13:55;5.97;;;3.95;;
48122;SDS011;33907;47.426;18.906;2023-04-25T04:16:23;6.93;;;4.20;;
48122;SDS011;33907;47.426;18.906;2023-04-25T04:18:51;6.20;;;3.80;;
48122;SDS011;33907;47.426;18.906;2023-04-25T04:21:18;5.87;;;3.42;;
48122;SDS011;33907;47.426;18.906;2023-04-25T04:23:45;7.05;;;4.05;;
48122;SDS011;33907;47.426;18.906;2023-04-25T04:26:14;5.65;;;3.67;;
48122;SDS011;33907;47.426;18.906;2023-04-25T04:28:45;8.40;;;3.85;;
48122;SDS011;33907;47.426;18.906;2023-04-25T04:31:12;6.65;;;4.60;;
48122;SDS011;33907;47.426;18.906;2023-04-25T04:33:45;9.25;;;4.80;;
48122;SDS011;33907;47.426;18.906;2023-04-25T04:36:14;10.50;;;4.80;;
48122;SDS011;33907;47.426;18.906;2023-04-25T04:38:41;7.60;;;4.68;;
48122;SDS011;33907;47.426;18.906;2023-04-25T04:41:10;6.75;;;4.37;;
48122;SDS011;33907;47.426;18.906;2023-04-25T04:43:38;7.12;;;4.95;;
48122;SDS011;33907;47.426;18.906;2023-04-25T04:46:06;7.15;;;5.30;;
48122;SDS011;33907;47.426;18.906;2023-04-25T04:48:34;6.93;;;5.35;;
48122;SDS011;33907;47.426;18.906;2023-04-25T04:51:02;7.32;;;5.30;;
48122;SDS011;33907;47.426;18.906;2023-04-25T04:53:31;7.65;;;5.20;;
48122;SDS011;33907;47.426;18.906;2023-04-25T04:55:59;7.55;;;5.45;;
48122;SDS011;33907;47.426;18.906;2023-04-25T04:58:27;9.52;;;5.80;;
48122;SDS011;33907;47.426;18.906;2023-04-25T05:00:56;8.50;;;5.90;;
48122;SDS011;33907;47.426;18.906;2023-04-25T05:03:26;9.00;;;5.87;;
48122;SDS011;33907;47.426;18.906;2023-04-25T05:05:56;7.30;;;5.15;;
48122;SDS011;33907;47.426;18.906;2023-04-25T05:08:24;8.32;;;6.50;;
48122;SDS011;33907;47.426;18.906;2023-04-25T05:10:53;8.10;;;6.15;;
48122;SDS011;33907;47.426;18.906;2023-04-25T05:13:22;9.52;;;6.25;;
48122;SDS011;33907;47.426;18.906;2023-04-25T05:15:51;10.73;;;6.53;;
48122;SDS011;33907;47.426;18.906;2023-04-25T05:18:19;10.38;;;6.07;;
48122;SDS011;33907;47.426;18.906;2023-04-25T05:20:51;8.93;;;5.97;;
48122;SDS011;33907;47.426;18.906;2023-04-25T05:23:19;8.57;;;6.70;;
48122;SDS011;33907;47.426;18.906;2023-04-25T05:25:46;10.15;;;6.57;;
48122;SDS011;33907;47.426;18.906;2023-04-25T05:28:14;10.68;;;6.28;;
48122;SDS011;33907;47.426;18.906;2023-04-25T05:30:42;12.13;;;6.82;;
48122;SDS011;33907;47.426;18.906;2023-04-25T05:33:10;9.95;;;7.07;;
48122;SDS011;33907;47.426;18.906;2023-04-25T05:35:37;9.52;;;6.55;;
48122;SDS011;33907;47.426;18.906;2023-04-25T05:38:05;12.57;;;7.87;;
48122;SDS011;33907;47.426;18.906;2023-04-25T05:40:34;12.07;;;6.47;;
48122;SDS011;33907;47.426;18.906;2023-04-25T05:43:02;11.98;;;7.57;;
48122;SDS011;33907;47.426;18.906;2023-04-25T05:45:30;10.23;;;7.22;;
48122;SDS011;33907;47.426;18.906;2023-04-25T05:47:58;11.55;;;7.12;;
48122;SDS011;33907;47.426;18.906;2023-04-25T05:50:26;11.73;;;8.25;;
48122;SDS011;33907;47.426;18.906;2023-04-25T05:52:54;11.75;;;8.38;;
48122;SDS011;33907;47.426;18.906;2023-04-25T05:55:22;11.25;;;7.80;;
48122;SDS011;33907;47.426;18.906;2023-04-25T05:57:53;8.73;;;7.00;;
48122;SDS011;33907;47.426;18.906;2023-04-25T06:00:22;10.23;;;7.40;;
48122;SDS011;33907;47.426;18.906;2023-04-25T06:02:50;10.40;;;7.53;;
48122;SDS011;33907;47.426;18.906;2023-04-25T06:05:18;9.35;;;7.12;;
48122;SDS011;33907;47.426;18.906;2023-04-25T06:07:46;10.02;;;7.07;;
48122;SDS011;33907;47.426;18.906;2023-04-25T06:10:13;11.27;;;7.78;;
48122;SDS011;33907;47.426;18.906;2023-04-25T06:12:42;9.80;;;7.10;;
48122;SDS011;33907;47.426;18.906;2023-04-25T06:15:09;10.82;;;7.05;;
48122;SDS011;33907;47.426;18.906;2023-04-25T06:17:54;9.98;;;6.90;;
48122;SDS011;33907;47.426;18.906;2023-04-25T06:20:22;9.73;;;7.72;;
48122;SDS011;33907;47.426;18.906;2023-04-25T06:22:52;11.32;;;7.05;;
48122;SDS011;33907;47.426;18.906;2023-04-25T06:25:20;9.48;;;6.55;;
48122;SDS011;33907;47.426;18.906;2023-04-25T06:27:48;7.87;;;6.32;;
48122;SDS011;33907;47.426;18.906;2023-04-25T06:30:15;10.25;;;7.68;;
48122;SDS011;33907;47.426;18.906;2023-04-25T06:32:45;9.60;;;6.57;;
48122;SDS011;33907;47.426;18.906;2023-04-25T06:35:13;9.45;;;6.47;;
48122;SDS011;33907;47.426;18.906;2023-04-25T06:37:41;13.68;;;6.93;;
48122;SDS011;33907;47.426;18.906;2023-04-25T06:40:08;10.10;;;6.18;;
48122;SDS011;33907;47.426;18.906;2023-04-25T06:42:36;9.35;;;6.37;;
48122;SDS011;33907;47.426;18.906;2023-04-25T06:45:05;8.60;;;6.40;;
48122;SDS011;33907;47.426;18.906;2023-04-25T06:47:33;10.05;;;6.47;;
48122;SDS011;33907;47.426;18.906;2023-04-25T06:50:01;9.00;;;6.05;;
48122;SDS011;33907;47.426;18.906;2023-04-25T06:52:29;8.85;;;5.87;;
48122;SDS011;33907;47.426;18.906;2023-04-25T06:54:58;10.00;;;6.30;;
48122;SDS011;33907;47.426;18.906;2023-04-25T06:57:27;9.02;;;6.78;;
48122;SDS011;33907;47.426;18.906;2023-04-25T06:59:56;8.02;;;5.62;;
48122;SDS011;33907;47.426;18.906;2023-04-25T07:02:23;7.60;;;5.80;;
48122;SDS011;33907;47.426;18.906;2023-04-25T07:04:51;7.95;;;5.75;;
48122;SDS011;33907;47.426;18.906;2023-04-25T07:07:19;9.60;;;6.45;;
48122;SDS011;33907;47.426;18.906;2023-04-25T07:09:47;7.87;;;5.72;;
48122;SDS011;33907;47.426;18.906;2023-04-25T07:12:14;9.63;;;5.50;;
48122;SDS011;33907;47.426;18.906;2023-04-25T07:14:43;7.22;;;5.45;;
48122;SDS011;33907;47.426;18.906;2023-04-25T07:17:11;9.57;;;5.78;;
48122;SDS011;33907;47.426;18.906;2023-04-25T07:19:38;7.20;;;5.12;;
48122;SDS011;33907;47.426;18.906;2023-04-25T07:22:07;6.85;;;5.05;;
48122;SDS011;33907;47.426;18.906;2023-04-25T07:24:35;10.25;;;5.78;;
48122;SDS011;33907;47.426;18.906;2023-04-25T07:27:04;7.07;;;4.85;;
48122;SDS011;33907;47.426;18.906;2023-04-25T07:29:31;6.55;;;5.00;;
48122;SDS011;33907;47.426;18.906;2023-04-25T07:31:59;6.32;;;4.70;;
48122;SDS011;33907;47.426;18.906;2023-04-25T07:34:31;9.93;;;4.45;;
48122;SDS011;33907;47.426;18.906;2023-04-25T07:36:59;7.35;;;4.97;;
48122;SDS011;33907;47.426;18.906;2023-04-25T07:39:28;6.60;;;4.57;;
48122;SDS011;33907;47.426;18.906;2023-04-25T07:41:56;7.75;;;4.75;;
48122;SDS011;33907;47.426;18.906;2023-04-25T07:44:27;6.97;;;4.65;;
48122;SDS011;33907;47.426;18.906;2023-04-25T07:46:54;6.85;;;5.05;;
48122;SDS011;33907;47.426;18.906;2023-04-25T07:49:22;6.37;;;4.75;;
48122;SDS011;33907;47.426;18.906;2023-04-25T07:51:49;7.40;;;4.85;;
48122;SDS011;33907;47.426;18.906;2023-04-25T07:54:17;10.15;;;5.40;;
48122;SDS011;33907;47.426;18.906;2023-04-25T07:56:45;6.60;;;4.62;;
48122;SDS011;33907;47.426;18.906;2023-04-25T07:59:20;6.80;;;4.55;;
48122;SDS011;33907;47.426;18.906;2023-04-25T08:01:47;7.95;;;5.00;;
48122;SDS011;33907;47.426;18.906;2023-04-25T08:04:15;6.82;;;4.57;;
48122;SDS011;33907;47.426;18.906;2023-04-25T08:06:44;6.15;;;4.65;;
48122;SDS011;33907;47.426;18.906;2023-04-25T08:09:12;10.13;;;4.47;;
48122;SDS011;33907;47.426;18.906;2023-04-25T08:11:41;6.78;;;4.87;;
48122;SDS011;33907;47.426;18.906;2023-04-25T08:14:09;7.35;;;5.05;;
48122;SDS011;33907;47.426;18.906;2023-04-25T08:16:37;6.60;;;4.43;;
48122;SDS011;33907;47.426;18.906;2023-04-25T08:19:05;6.85;;;4.72;;
48122;SDS011;33907;47.426;18.906;2023-04-25T08:21:33;8.63;;;4.57;;
48122;SDS011;33907;47.426;18.906;2023-04-25T08:24:01;6.37;;;4.75;;
48122;SDS011;33907;47.426;18.906;2023-04-25T08:26:32;5.85;;;4.10;;
48122;SDS011;33907;47.426;18.906;2023-04-25T08:29:01;6.25;;;4.60;;
48122;SDS011;33907;47.426;18.906;2023-04-25T08:31:29;6.85;;;4.70;;
48122;SDS011;33907;47.426;18.906;2023-04-25T08:33:57;7.50;;;5.93;;
48122;SDS011;33907;47.426;18.906;2023-04-25T08:36:25;7.32;;;4.85;;
48122;SDS011;33907;47.426;18.906;2023-04-25T08:39:12;7.97;;;4.72;;
48122;SDS011;33907;47.426;18.906;2023-04-25T08:41:42;8.88;;;4.97;;
48122;SDS011;33907;47.426;18.906;2023-04-25T08:44:10;6.78;;;4.62;;
48122;SDS011;33907;47.426;18.906;2023-04-25T08:46:38;6.20;;;4.37;;
48122;SDS011;33907;47.426;18.906;2023-04-25T08:49:10;6.87;;;5.18;;
48122;SDS011;33907;47.426;18.906;2023-04-25T08:51:44;7.05;;;5.55;;
48122;SDS011;33907;47.426;18.906;2023-04-25T08:54:17;8.27;;;5.22;;
48122;SDS011;33907;47.426;18.906;2023-04-25T08:57:02;8.63;;;5.12;;
48122;SDS011;33907;47.426;18.906;2023-04-25T08:59:32;6.07;;;4.62;;
48122;SDS011;33907;47.426;18.906;2023-04-25T09:02:00;6.65;;;5.10;;
48122;SDS011;33907;47.426;18.906;2023-04-25T09:04:30;8.75;;;5.03;;
48122;SDS011;33907;47.426;18.906;2023-04-25T09:06:58;9.43;;;5.12;;
48122;SDS011;33907;47.426;18.906;2023-04-25T09:09:26;6.75;;;5.22;;
48122;SDS011;33907;47.426;18.906;2023-04-25T09:11:54;6.45;;;4.93;;
48122;SDS011;33907;47.426;18.906;2023-04-25T09:14:23;8.82;;;4.55;;
48122;SDS011;33907;47.426;18.906;2023-04-25T09:19:34;6.87;;;4.80;;
48122;SDS011;33907;47.426;18.906;2023-04-25T09:22:08;6.05;;;4.43;;
48122;SDS011;33907;47.426;18.906;2023-04-25T09:24:40;6.90;;;4.68;;
48122;SDS011;33907;47.426;18.906;2023-04-25T09:27:11;8.50;;;4.57;;
48122;SDS011;33907;47.426;18.906;2023-04-25T09:29:40;6.15;;;4.53;;
48122;SDS011;33907;47.426;18.906;2023-04-25T09:34:46;6.82;;;4.30;;
48122;SDS011;33907;47.426;18.906;2023-04-25T09:37:21;8.30;;;4.40;;
48122;SDS011;33907;47.426;18.906;2023-04-25T09:39:52;6.35;;;3.70;;
48122;SDS011;33907;47.426;18.906;2023-04-25T09:42:29;5.12;;;3.50;;
48122;SDS011;33907;47.426;18.906;2023-04-25T09:44:59;7.60;;;3.92;;
48122;SDS011;33907;47.426;18.906;2023-04-25T09:47:30;5.70;;;3.53;;
48122;SDS011;33907;47.426;18.906;2023-04-25T09:49:59;5.22;;;3.55;;
48122;SDS011;33907;47.426;18.906;2023-04-25T09:52:28;5.78;;;3.50;;
48122;SDS011;33907;47.426;18.906;2023-04-25T09:54:56;5.12;;;3.30;;
48122;SDS011;33907;47.426;18.906;2023-04-25T09:57:24;5.40;;;3.37;;
48122;SDS011;33907;47.426;18.906;2023-04-25T09:59:53;5.70;;;3.33;;
48122;SDS011;33907;47.426;18.906;2023-04-25T10:02:23;7.55;;;3.00;;
48122;SDS011;33907;47.426;18.906;2023-04-25T10:04:55;3.97;;;2.78;;
48122;SDS011;33907;47.426;18.906;2023-04-25T10:07:24;5.32;;;3.00;;
48122;SDS011;33907;47.426;18.906;2023-04-25T10:09:57;4.10;;;2.62;;
48122;SDS011;33907;47.426;18.906;2023-04-25T10:12:30;5.75;;;2.95;;
48122;SDS011;33907;47.426;18.906;2023-04-25T10:15:02;4.70;;;2.30;;
48122;SDS011;33907;47.426;18.906;2023-04-25T10:17:30;5.03;;;2.58;;
48122;SDS011;33907;47.426;18.906;2023-04-25T10:19:58;4.07;;;1.98;;
48122;SDS011;33907;47.426;18.906;2023-04-25T10:22:38;4.57;;;1.98;;
48122;SDS011;33907;47.426;18.906;2023-04-25T10:25:08;6.55;;;2.15;;
48122;SDS011;33907;47.426;18.906;2023-04-25T10:27:36;3.22;;;1.75;;
48122;SDS011;33907;47.426;18.906;2023-04-25T10:30:05;2.90;;;1.37;;
48122;SDS011;33907;47.426;18.906;2023-04-25T10:32:37;3.00;;;1.30;;
48122;SDS011;33907;47.426;18.906;2023-04-25T10:35:12;1.98;;;1.05;;
48122;SDS011;33907;47.426;18.906;2023-04-25T10:40:27;4.28;;;1.55;;
48122;SDS011;33907;47.426;18.906;2023-04-25T10:42:55;2.15;;;1.00;;
48122;SDS011;33907;47.426;18.906;2023-04-25T10:45:23;3.97;;;0.80;;
48122;SDS011;33907;47.426;18.906;2023-04-25T10:47:50;1.60;;;0.90;;
48122;SDS011;33907;47.426;18.906;2023-04-25T10:50:18;2.08;;;0.82;;
48122;SDS011;33907;47.426;18.906;2023-04-25T10:52:45;1.50;;;0.77;;
48122;SDS011;33907;47.426;18.906;2023-04-25T10:55:13;1.67;;;0.70;;
48122;SDS011;33907;47.426;18.906;2023-04-25T10:57:44;1.75;;;0.77;;
48122;SDS011;33907;47.426;18.906;2023-04-25T11:00:15;0.85;;;0.50;;
48122;SDS011;33907;47.426;18.906;2023-04-25T11:02:49;2.22;;;0.77;;
48122;SDS011;33907;47.426;18.906;2023-04-25T11:05:23;1.60;;;0.80;;
48122;SDS011;33907;47.426;18.906;2023-04-25T11:08:17;1.60;;;0.80;;
48122;SDS011;33907;47.426;18.906;2023-04-25T11:10:52;3.00;;;1.08;;
48122;SDS011;33907;47.426;18.906;2023-04-25T11:13:20;1.85;;;0.88;;
48122;SDS011;33907;47.426;18.906;2023-04-25T11:15:51;1.45;;;0.70;;
48122;SDS011;33907;47.426;18.906;2023-04-25T11:18:40;1.17;;;0.65;;
48122;SDS011;33907;47.426;18.906;2023-04-25T11:21:09;1.62;;;0.60;;
48122;SDS011;33907;47.426;18.906;2023-04-25T11:23:37;1.25;;;0.60;;
48122;SDS011;33907;47.426;18.906;2023-04-25T11:26:04;2.12;;;0.70;;
48122;SDS011;33907;47.426;18.906;2023-04-25T11:28:32;1.60;;;0.62;;
48122;SDS011;33907;47.426;18.906;2023-04-25T11:30:59;2.60;;;0.80;;
48122;SDS011;33907;47.426;18.906;2023-04-25T11:33:27;1.27;;;0.52;;
48122;SDS011;33907;47.426;18.906;2023-04-25T11:35:55;1.10;;;0.70;;
48122;SDS011;33907;47.426;18.906;2023-04-25T11:38:24;1.77;;;0.75;;
48122;SDS011;33907;47.426;18.906;2023-04-25T11:40:53;2.67;;;0.73;;
48122;SDS011;33907;47.426;18.906;2023-04-25T11:43:21;2.35;;;0.75;;
48122;SDS011;33907;47.426;18.906;2023-04-25T11:45:50;3.10;;;1.20;;
48122;SDS011;33907;47.426;18.906;2023-04-25T11:48:19;2.20;;;1.23;;
48122;SDS011;33907;47.426;18.906;2023-04-25T11:50:53;2.40;;;0.98;;
48122;SDS011;33907;47.426;18.906;2023-04-25T11:53:21;2.08;;;1.02;;
48122;SDS011;33907;47.426;18.906;2023-04-25T11:55:48;2.67;;;1.20;;
48122;SDS011;33907;47.426;18.906;2023-04-25T11:58:18;4.75;;;1.62;;
48122;SDS011;33907;47.426;18.906;2023-04-25T12:00:46;2.40;;;1.10;;
48122;SDS011;33907;47.426;18.906;2023-04-25T12:03:17;2.17;;;0.90;;
48122;SDS011;33907;47.426;18.906;2023-04-25T12:05:45;3.67;;;1.50;;
48122;SDS011;33907;47.426;18.906;2023-04-25T12:08:15;2.05;;;1.05;;
48122;SDS011;33907;47.426;18.906;2023-04-25T12:10:44;3.22;;;1.08;;
48122;SDS011;33907;47.426;18.906;2023-04-25T12:13:22;2.85;;;0.90;;
48122;SDS011;33907;47.426;18.906;2023-04-25T12:15:54;2.80;;;1.12;;
48122;SDS011;33907;47.426;18.906;2023-04-25T12:18:23;4.05;;;1.15;;
48122;SDS011;33907;47.426;18.906;2023-04-25T12:20:52;3.33;;;1.37;;
48122;SDS011;33907;47.426;18.906;2023-04-25T12:23:27;2.35;;;0.95;;
48122;SDS011;33907;47.426;18.906;2023-04-25T12:25:55;3.22;;;1.42;;
48122;SDS011;33907;47.426;18.906;2023-04-25T12:28:24;2.87;;;0.80;;
48122;SDS011;33907;47.426;18.906;2023-04-25T12:33:22;5.60;;;1.15;;
48122;SDS011;33907;47.426;18.906;2023-04-25T12:35:50;3.78;;;1.20;;
48122;SDS011;33907;47.426;18.906;2023-04-25T12:38:21;2.33;;;1.17;;
48122;SDS011;33907;47.426;18.906;2023-04-25T12:40:50;2.90;;;1.40;;
48122;SDS011;33907;47.426;18.906;2023-04-25T12:43:18;2.75;;;1.20;;
48122;SDS011;33907;47.426;18.906;2023-04-25T12:45:52;2.03;;;1.15;;
48122;SDS011;33907;47.426;18.906;2023-04-25T12:48:20;3.45;;;1.33;;
48122;SDS011;33907;47.426;18.906;2023-04-25T12:50:49;2.83;;;1.10;;
48122;SDS011;33907;47.426;18.906;2023-04-25T12:53:18;3.42;;;1.25;;
48122;SDS011;33907;47.426;18.906;2023-04-25T12:55:48;3.05;;;1.37;;
48122;SDS011;33907;47.426;18.906;2023-04-25T12:58:16;3.95;;;1.25;;
48122;SDS011;33907;47.426;18.906;2023-04-25T13:00:44;3.47;;;1.10;;
48122;SDS011;33907;47.426;18.906;2023-04-25T13:03:12;5.35;;;1.30;;
48122;SDS011;33907;47.426;18.906;2023-04-25T13:05:41;2.33;;;1.00;;
48122;SDS011;33907;47.426;18.906;2023-04-25T13:08:09;5.40;;;1.30;;
48122;SDS011;33907;47.426;18.906;2023-04-25T13:10:36;3.55;;;1.23;;
48122;SDS011;33907;47.426;18.906;2023-04-25T13:13:08;2.87;;;1.30;;
48122;SDS011;33907;47.426;18.906;2023-04-25T13:15:35;4.10;;;1.48;;
48122;SDS011;33907;47.426;18.906;2023-04-25T13:18:04;2.97;;;1.30;;
48122;SDS011;33907;47.426;18.906;2023-04-25T13:20:34;4.07;;;1.40;;
48122;SDS011;33907;47.426;18.906;2023-04-25T13:23:02;4.85;;;1.40;;
48122;SDS011;33907;47.426;18.906;2023-04-25T13:25:29;3.12;;;1.00;;
48122;SDS011;33907;47.426;18.906;2023-04-25T13:27:57;5.05;;;1.27;;
48122;SDS011;33907;47.426;18.906;2023-04-25T13:30:24;3.08;;;1.40;;
48122;SDS011;33907;47.426;18.906;2023-04-25T13:32:52;2.62;;;1.37;;
48122;SDS011;33907;47.426;18.906;2023-04-25T13:35:21;2.47;;;1.20;;
48122;SDS011;33907;47.426;18.906;2023-04-25T13:37:48;6.22;;;1.35;;
48122;SDS011;33907;47.426;18.906;2023-04-25T13:40:16;2.12;;;1.20;;
48122;SDS011;33907;47.426;18.906;2023-04-25T13:42:44;5.35;;;1.30;;
48122;SDS011;33907;47.426;18.906;2023-04-25T13:45:12;2.90;;;1.20;;
48122;SDS011;33907;47.426;18.906;2023-04-25T13:47:40;3.15;;;1.12;;
48122;SDS011;33907;47.426;18.906;2023-04-25T13:50:07;2.22;;;1.12;;
48122;SDS011;33907;47.426;18.906;2023-04-25T13:52:36;2.70;;;1.30;;
48122;SDS011;33907;47.426;18.906;2023-04-25T13:55:04;3.33;;;1.33;;
48122;SDS011;33907;47.426;18.906;2023-04-25T13:57:34;2.67;;;1.17;;
48122;SDS011;33907;47.426;18.906;2023-04-25T14:00:03;2.83;;;1.48;;
48122;SDS011;33907;47.426;18.906;2023-04-25T14:02:36;2.37;;;1.10;;
48122;SDS011;33907;47.426;18.906;2023-04-25T14:05:04;5.18;;;1.27;;
48122;SDS011;33907;47.426;18.906;2023-04-25T14:07:33;3.97;;;1.48;;
48122;SDS011;33907;47.426;18.906;2023-04-25T14:10:02;4.62;;;1.50;;
48122;SDS011;33907;47.426;18.906;2023-04-25T14:12:31;3.97;;;1.33;;
48122;SDS011;33907;47.426;18.906;2023-04-25T14:14:59;2.35;;;1.25;;
48122;SDS011;33907;47.426;18.906;2023-04-25T14:17:27;3.70;;;1.60;;
48122;SDS011;33907;47.426;18.906;2023-04-25T14:19:54;3.15;;;1.58;;
48122;SDS011;33907;47.426;18.906;2023-04-25T14:22:22;2.45;;;1.30;;
48122;SDS011;33907;47.426;18.906;2023-04-25T14:24:50;3.87;;;1.48;;
48122;SDS011;33907;47.426;18.906;2023-04-25T14:27:17;5.20;;;1.55;;
48122;SDS011;33907;47.426;18.906;2023-04-25T14:29:44;2.80;;;1.30;;
48122;SDS011;33907;47.426;18.906;2023-04-25T14:32:12;3.40;;;1.45;;
48122;SDS011;33907;47.426;18.906;2023-04-25T14:34:40;3.62;;;1.80;;
48122;SDS011;33907;47.426;18.906;2023-04-25T14:37:08;3.72;;;1.50;;
48122;SDS011;33907;47.426;18.906;2023-04-25T14:39:35;3.22;;;1.35;;
48122;SDS011;33907;47.426;18.906;2023-04-25T14:42:03;4.80;;;1.45;;
48122;SDS011;33907;47.426;18.906;2023-04-25T14:44:31;3.87;;;1.35;;
48122;SDS011;33907;47.426;18.906;2023-04-25T14:46:59;4.65;;;1.87;;
48122;SDS011;33907;47.426;18.906;2023-04-25T14:49:27;5.32;;;1.62;;
48122;SDS011;33907;47.426;18.906;2023-04-25T14:51:55;4.10;;;1.37;;
48122;SDS011;33907;47.426;18.906;2023-04-25T14:54:25;2.50;;;1.40;;